createdAt,value
2022-11-20T00:00:19.204Z,98.000000
2022-11-20T00:05:23.850Z,98.000000
2022-11-20T00:10:25.565Z,98.000000
2022-11-20T00:15:28.596Z,98.000000
2022-11-20T00:20:20.057Z,98.000000
2022-11-20T00:25:23.965Z,98.000000
2022-11-20T00:30:26.404Z,98.000000
2022-11-20T00:35:24.383Z,98.500000
2022-11-20T00:40:20.454Z,99.000000
2022-11-20T00:45:24.455Z,99.000000
2022-11-20T00:50:26.760Z,99.000000
2022-11-20T00:55:24.357Z,99.000000
2022-11-20T01:00:21.771Z,99.000000
2022-11-20T01:05:24.496Z,99.000000
2022-11-20T01:10:27.146Z,99.000000
2022-11-20T01:15:30.254Z,99.000000
2022-11-20T01:20:24.345Z,99.000000
2022-11-20T01:25:24.776Z,99.000000
2022-11-20T01:30:27.699Z,99.000000
2022-11-20T01:35:24.806Z,99.000000
2022-11-20T01:40:24.779Z,99.000000
2022-11-20T01:45:26.729Z,98.333333
2022-11-20T01:50:24.802Z,98.000000
2022-11-20T01:55:19.023Z,98.000000
2022-11-20T02:00:24.820Z,98.000000
2022-11-20T02:05:25.687Z,98.000000
2022-11-20T02:10:24.723Z,97.916667
2022-11-20T02:15:19.495Z,97.000000
2022-11-20T02:20:24.882Z,97.000000
2022-11-20T02:25:25.830Z,96.555556
2022-11-20T02:30:24.690Z,96.000000
2022-11-20T02:35:19.955Z,95.083333
2022-11-20T02:40:25.137Z,95.000000
2022-11-20T02:45:26.371Z,95.250000
2022-11-20T02:50:25.160Z,95.000000
2022-11-20T02:55:20.438Z,95.000000
2022-11-20T03:00:26.009Z,94.000000
2022-11-20T03:05:26.643Z,93.800000
2022-11-20T03:10:25.146Z,93.000000
2022-11-20T03:15:20.950Z,92.727273
2022-11-20T03:20:25.415Z,90.500000
2022-11-20T03:25:27.560Z,90.000000
2022-11-20T03:30:31.126Z,90.000000
2022-11-20T03:35:21.637Z,90.000000
2022-11-20T03:40:24.775Z,90.000000
2022-11-20T03:45:27.839Z,90.777778
2022-11-20T03:50:18.938Z,91.000000
2022-11-20T03:55:22.009Z,91.875000
2022-11-20T04:00:26.043Z,92.153846
2022-11-20T04:05:25.333Z,93.000000
2022-11-20T04:10:19.274Z,93.000000
2022-11-20T04:15:25.188Z,93.000000
2022-11-20T04:20:25.616Z,93.000000
2022-11-20T04:25:25.286Z,93.000000
2022-11-20T04:30:19.859Z,93.444444
2022-11-20T04:35:25.269Z,94.000000
2022-11-20T04:40:26.029Z,93.833333
2022-11-20T04:45:25.576Z,94.000000
2022-11-20T04:50:20.210Z,94.000000
2022-11-20T04:55:25.266Z,93.916667
2022-11-20T05:00:26.421Z,94.000000
2022-11-20T05:05:25.276Z,94.000000
2022-11-20T05:10:20.555Z,94.000000
2022-11-20T05:15:23.597Z,94.000000
2022-11-20T05:20:27.301Z,94.000000
2022-11-20T05:25:25.247Z,94.200000
2022-11-20T05:30:21.401Z,95.000000
2022-11-20T05:35:25.261Z,95.000000
2022-11-20T05:40:27.745Z,94.583333
2022-11-20T05:45:31.068Z,92.777778
2022-11-20T05:50:21.725Z,92.000000
2022-11-20T05:55:25.216Z,92.000000
2022-11-20T06:00:27.985Z,92.000000
2022-11-20T06:05:19.108Z,92.000000
2022-11-20T06:10:25.242Z,92.833333
2022-11-20T06:15:25.514Z,93.600000
2022-11-20T06:20:25.230Z,94.000000
2022-11-20T06:25:19.990Z,94.000000
2022-11-20T06:30:25.219Z,94.000000
2022-11-20T06:35:26.172Z,94.000000
2022-11-20T06:40:25.185Z,94.000000
2022-11-20T06:45:20.350Z,94.000000
2022-11-20T06:50:25.472Z,94.000000
2022-11-20T06:55:26.638Z,94.000000
2022-11-20T07:00:25.303Z,94.000000
2022-11-20T07:05:20.680Z,93.000000
2022-11-20T07:10:25.157Z,93.000000
2022-11-20T07:15:26.958Z,93.000000
2022-11-20T07:20:25.211Z,93.000000
2022-11-20T07:25:21.293Z,93.000000
2022-11-20T07:30:24.334Z,92.200000
2022-11-20T07:35:27.812Z,91.111111
2022-11-20T07:40:30.706Z,90.583333
2022-11-20T07:45:21.590Z,90.000000
2022-11-20T07:50:25.884Z,90.000000
2022-11-20T07:55:27.932Z,90.500000
2022-11-20T08:00:19.549Z,91.000000
2022-11-20T08:05:22.075Z,90.545455
2022-11-20T08:10:25.566Z,88.500000
2022-11-20T08:15:28.288Z,88.000000
2022-11-20T08:20:19.704Z,88.000000
2022-11-20T08:25:22.980Z,87.600000
2022-11-20T08:30:26.107Z,87.000000
2022-11-20T08:35:25.682Z,86.363636
2022-11-20T08:40:20.182Z,86.000000
2022-11-20T08:45:29.632Z,85.000000
2022-11-20T08:50:26.754Z,85.636364
2022-11-20T08:55:26.451Z,85.888889
2022-11-20T09:00:20.505Z,85.909091
2022-11-20T09:05:25.791Z,86.666667
2022-11-20T09:10:26.833Z,87.416667
2022-11-20T09:15:25.881Z,88.000000
2022-11-20T09:20:21.403Z,88.750000
2022-11-20T09:25:24.455Z,89.000000
2022-11-20T09:30:27.447Z,89.800000
2022-11-20T09:35:25.696Z,90.000000
2022-11-20T09:40:21.574Z,89.583333
2022-11-20T09:45:26.771Z,88.166667
2022-11-20T09:50:27.856Z,87.727273
2022-11-20T09:55:18.818Z,87.000000
2022-11-20T10:00:22.062Z,87.000000
2022-11-20T10:05:25.657Z,87.000000
2022-11-20T10:10:28.285Z,87.916667
2022-11-20T10:15:19.320Z,87.800000
2022-11-20T10:20:25.605Z,86.583333
2022-11-20T10:25:25.958Z,86.000000
2022-11-20T10:30:25.699Z,85.083333
2022-11-20T10:35:20.184Z,85.000000
2022-11-20T10:40:26.132Z,85.700000
2022-11-20T10:45:27.145Z,87.000000
2022-11-20T10:50:26.136Z,87.000000
2022-11-20T10:55:20.504Z,87.200000
2022-11-20T11:00:26.196Z,87.200000
2022-11-20T11:05:27.072Z,87.000000
2022-11-20T11:10:26.086Z,86.090909
2022-11-20T11:15:20.984Z,86.000000
2022-11-20T11:20:26.110Z,86.000000
2022-11-20T11:25:27.654Z,86.000000
2022-11-20T11:30:26.164Z,86.000000
2022-11-20T11:35:21.781Z,86.000000
2022-11-20T11:40:27.223Z,86.000000
2022-11-20T11:45:28.023Z,86.250000
2022-11-20T11:50:19.051Z,87.000000
2022-11-20T11:55:22.224Z,87.000000
2022-11-20T12:00:26.542Z,87.923077
2022-11-20T12:05:28.474Z,88.250000
2022-11-20T12:10:19.445Z,89.000000
2022-11-20T12:15:22.632Z,89.000000
2022-11-20T12:20:26.720Z,89.000000
2022-11-20T12:25:29.245Z,89.000000
2022-11-20T12:30:20.183Z,88.090909
2022-11-20T12:35:24.025Z,88.083333
2022-11-20T12:40:27.077Z,88.000000
2022-11-20T12:45:29.605Z,88.000000
2022-11-20T12:50:20.617Z,87.333333
2022-11-20T12:55:23.715Z,87.000000
2022-11-20T13:00:26.997Z,87.000000
2022-11-20T13:05:30.116Z,87.000000
2022-11-20T13:10:20.959Z,86.777778
2022-11-20T13:15:27.140Z,86.000000
2022-11-20T13:20:27.409Z,86.416667
2022-11-20T13:25:27.046Z,86.000000
2022-11-20T13:30:22.268Z,86.000000
2022-11-20T13:35:27.021Z,85.666667
2022-11-20T13:40:28.124Z,84.500000
2022-11-20T13:45:18.832Z,84.000000
2022-11-20T13:50:22.035Z,84.000000
2022-11-20T13:55:27.026Z,83.900000
2022-11-20T14:00:28.369Z,83.000000
2022-11-20T14:05:19.303Z,83.000000
2022-11-20T14:10:25.823Z,82.000000
2022-11-20T14:15:27.007Z,81.555556
2022-11-20T14:20:28.807Z,82.000000
2022-11-20T14:25:20.526Z,82.000000
2022-11-20T14:30:22.960Z,82.363636
2022-11-20T14:35:27.424Z,83.000000
2022-11-20T14:40:29.273Z,83.000000
2022-11-20T14:45:20.233Z,83.300000
2022-11-20T14:50:23.343Z,84.916667
2022-11-20T14:55:27.497Z,87.000000
2022-11-20T15:00:29.679Z,88.500000
2022-11-20T15:05:20.729Z,89.444444
2022-11-20T15:10:23.781Z,90.300000
2022-11-20T15:15:27.393Z,91.000000
2022-11-20T15:20:27.643Z,91.000000
2022-11-20T15:25:21.506Z,91.000000
2022-11-20T15:30:27.503Z,91.000000
2022-11-20T15:35:27.907Z,91.000000
2022-11-20T15:40:27.955Z,90.000000
2022-11-20T15:45:21.918Z,89.454545
2022-11-20T15:50:27.778Z,89.000000
2022-11-20T15:55:28.243Z,89.272727
2022-11-20T16:00:23.430Z,90.000000
2022-11-20T16:05:22.331Z,90.636364
2022-11-20T16:10:27.930Z,91.000000
2022-11-20T16:15:28.739Z,91.100000
2022-11-20T16:20:19.813Z,92.000000
2022-11-20T16:25:22.816Z,92.000000
2022-11-20T16:30:27.877Z,92.000000
2022-11-20T16:35:29.193Z,92.000000
2022-11-20T16:40:20.155Z,92.000000
2022-11-20T16:45:26.898Z,91.416667
2022-11-20T16:50:28.375Z,89.454545
2022-11-20T16:55:29.500Z,89.000000
2022-11-20T17:00:20.511Z,87.800000
2022-11-20T17:05:23.666Z,86.600000
2022-11-20T17:10:28.282Z,87.583333
2022-11-20T17:15:30.594Z,88.000000
2022-11-20T17:20:20.997Z,88.818182
2022-11-20T17:25:24.153Z,89.300000
2022-11-20T17:30:28.312Z,90.000000
2022-11-20T17:35:30.408Z,90.000000
2022-11-20T17:40:26.997Z,90.916667
2022-11-20T17:45:24.713Z,91.200000
2022-11-20T17:50:28.702Z,91.090909
2022-11-20T17:55:31.050Z,91.700000
2022-11-20T18:00:21.811Z,91.000000
2022-11-20T18:05:24.951Z,90.181818
2022-11-20T18:10:28.759Z,89.416667
2022-11-20T18:15:19.055Z,88.200000
2022-11-20T18:20:28.998Z,88.000000
2022-11-20T18:25:26.144Z,88.727273
2022-11-20T18:30:28.748Z,89.000000
2022-11-20T18:35:19.577Z,90.000000
2022-11-20T18:40:22.903Z,90.000000
2022-11-20T18:45:28.814Z,90.666667
2022-11-20T18:50:28.999Z,91.000000
2022-11-20T18:55:20.034Z,91.000000
2022-11-20T19:00:23.413Z,91.916667
2022-11-20T19:05:28.763Z,93.000000
2022-11-20T19:10:29.609Z,94.000000
2022-11-20T19:15:20.384Z,94.000000
2022-11-20T19:20:23.888Z,95.000000
2022-11-20T19:25:27.070Z,95.000000
2022-11-20T19:30:30.147Z,95.000000
2022-11-20T19:35:21.238Z,95.000000
2022-11-20T19:40:24.398Z,95.000000
2022-11-20T19:45:29.071Z,95.000000
2022-11-20T19:50:30.528Z,95.444444
2022-11-20T19:55:21.508Z,96.000000
2022-11-20T20:00:31.199Z,96.000000
2022-11-20T20:05:28.712Z,96.000000
2022-11-20T20:10:18.801Z,96.000000
2022-11-20T20:15:21.990Z,96.000000
2022-11-20T20:20:25.520Z,96.000000
2022-11-20T20:25:28.697Z,96.000000
2022-11-20T20:30:19.659Z,96.000000
2022-11-20T20:35:22.785Z,96.000000
2022-11-20T20:40:25.973Z,96.000000
2022-11-20T20:45:29.484Z,96.000000
2022-11-20T20:50:20.190Z,96.000000
2022-11-20T20:55:23.243Z,95.846154
2022-11-20T21:00:29.256Z,94.375000
2022-11-20T21:05:29.789Z,94.000000
2022-11-20T21:10:23.748Z,94.000000
2022-11-20T21:15:23.561Z,94.000000
2022-11-20T21:20:29.224Z,94.000000
2022-11-20T21:25:30.203Z,94.000000
2022-11-20T21:30:21.622Z,94.000000
2022-11-20T21:35:23.992Z,94.909091
2022-11-20T21:40:27.242Z,95.000000
2022-11-20T21:45:30.342Z,95.100000
2022-11-20T21:50:21.365Z,95.000000
2022-11-20T21:55:24.542Z,95.000000
2022-11-20T22:00:29.688Z,95.000000
2022-11-20T22:05:30.843Z,95.000000
2022-11-20T22:10:21.739Z,95.000000
2022-11-20T22:15:53.101Z,95.545455
2022-11-20T22:20:29.738Z,96.000000
2022-11-20T22:25:19.248Z,96.000000
2022-11-20T22:30:22.284Z,96.000000
2022-11-20T22:35:25.443Z,96.000000
2022-11-20T22:40:30.339Z,96.000000
2022-11-20T22:45:19.583Z,96.666667
2022-11-20T22:50:22.861Z,97.000000
2022-11-20T22:55:30.095Z,97.000000
2022-11-20T23:00:30.194Z,97.000000
2022-11-20T23:05:20.069Z,97.000000
2022-11-20T23:10:23.201Z,97.000000
2022-11-20T23:15:26.261Z,97.000000
2022-11-20T23:20:29.783Z,97.000000
2022-11-20T23:25:20.788Z,97.000000
2022-11-20T23:30:23.999Z,97.000000
2022-11-20T23:35:27.093Z,97.100000
2022-11-20T23:40:30.697Z,98.000000
2022-11-20T23:45:21.280Z,98.000000
2022-11-20T23:50:24.354Z,98.000000
2022-11-20T23:55:27.619Z,98.000000
